Flight Track Log - Related Links

Times and Time Zones

All times are in EDT time to prevent confusion due to time zone crossing. See the N830QS flight status page for this flight to view local times or setup timezone preferences in your user account.

Time Position Orientation Groundspeed Altitude Reporting Facility
EDT Latitude Longitude Course Direction KTS MPH feet Rate Location/Type
Sun 05:59:00 PM 33.1333 -117.3500 322° Northwest 204 235 3,300  Level Southern California TRACON
Sun 06:00:01 PM 33.1167 -117.4167 253° West 244 281 5,500 2,083 Climbing Southern California TRACON
Sun 06:01:01 PM 33.1167 -117.5167 270° West 278 320 7,500 1,930 Climbing Southern California TRACON
Sun 06:03:20 PM 33.1128 -117.7164 269° West 307 353 11,900 1,851 Climbing Los Angeles Center
Sun 06:04:00 PM 33.5731 -117.7013 322° Northwest  Level Estimated
Sun 06:04:22 PM 33.1644 -117.8067 304° West 326 375 13,700  Level Los Angeles Center
Sun 06:05:24 PM 33.2467 -117.9011 316° Northwest 339 390 16,300 2,226 Climbing Los Angeles Center
Sun 06:06:26 PM 33.3125 -117.9856 313° West 346 398 18,300 1,839 Climbing Los Angeles Center
Sun 06:07:28 PM 33.3817 -118.0764 312° West 363 418 20,100 1,742 Climbing Los Angeles Center
Sun 06:08:30 PM 33.4556 -118.1669 314° West 375 432 21,900 1,790 Climbing Los Angeles Center
Sun 06:09:32 PM 33.5306 -118.2583 315° West 382 440 23,800 1,597 Climbing Los Angeles Center
Sun 06:10:34 PM 33.6239 -118.3175 332° Northwest 386 444 25,200 1,403 Climbing Los Angeles Center
Sun 06:11:36 PM 33.7469 -118.3725 340° North 407 468 26,700 1,306 Climbing Los Angeles Center
Sun 06:12:38 PM 33.8464 -118.4178 339° North 406 467 27,900 1,210 Climbing Los Angeles Center
Sun 06:13:40 PM 33.9514 -118.4653 339° North 405 466 29,200 1,016 Climbing Los Angeles Center
Sun 06:14:42 PM 34.0806 -118.5242 339° North 410 472 30,000 387 Climbing Los Angeles Center
Sun 06:15:44 PM 34.1956 -118.5786 339° North 441 507 30,000  Level Los Angeles Center
Sun 06:16:46 PM 34.3103 -118.6322 339° North 444 511 30,000  Level Los Angeles Center
Sun 06:17:48 PM 34.4250 -118.6819 340° North 440 506 30,000  Level Los Angeles Center
Sun 06:18:49 PM 34.5147 -118.7244 339° North 436 502 30,000  Level Los Angeles Center
Sun 06:19:52 PM 34.6478 -118.7889 338° Northwest 430 495 30,000  Level Los Angeles Center
Sun 06:20:54 PM 34.7825 -118.8528 339° North 434 499 30,000  Level Los Angeles Center
Sun 06:21:55 PM 34.8756 -118.9417 322° Northwest 431 496 30,000  Level Los Angeles Center
Sun 06:22:57 PM 34.9550 -119.0269 319° Northwest 420 483 30,000  Level Los Angeles Center
Sun 06:23:59 PM 35.0408 -119.1211 318° Northwest 417 480 30,000  Level Los Angeles Center
Sun 06:25:01 PM 35.1467 -119.2356 319° Northwest 425 489 30,000  Level Los Angeles Center
Sun 06:26:03 PM 35.2325 -119.3303 318° Northwest 412 474 30,000  Level Los Angeles Center
Sun 06:27:05 PM 35.3181 -119.4256 318° Northwest 414 476 30,000  Level Los Angeles Center
Sun 06:28:07 PM 35.4036 -119.5208 318° Northwest 417 480 30,000  Level Los Angeles Center
Sun 06:29:09 PM 35.4903 -119.6167 318° Northwest 421 484 30,000  Level Los Angeles Center
Sun 06:31:25 PM 35.6925 -119.8439 318° Northwest 419 482 30,000  Level Oakland Center
Sun 06:32:27 PM 35.7783 -119.9394 318° Northwest 419 482 30,000  Level Oakland Center
Sun 06:33:28 PM 35.8628 -120.0364 317° Northwest 418 481 30,000  Level Oakland Center
Sun 06:34:29 PM 35.9483 -120.1319 318° Northwest 418 481 30,000  Level Oakland Center
Sun 06:35:31 PM 36.0333 -120.2283 317° Northwest 417 480 30,000  Level Oakland Center
Sun 06:36:32 PM 36.1350 -120.3456 317° Northwest 417 480 30,000  Level Oakland Center
Sun 06:37:34 PM 36.2208 -120.4436 317° Northwest 420 483 30,000  Level Oakland Center
Sun 06:38:35 PM 36.3053 -120.5414 317° Northwest 418 481 30,000  Level Oakland Center
Sun 06:39:36 PM 36.3892 -120.6425 316° Northwest 421 484 30,000  Level Oakland Center
Sun 06:41:00 PM 36.4933 -120.7588 318° Northwest  Level FlightAware Approximate
Sun 06:41:39 PM 36.5603 -120.8392 318° Northwest 421 484 30,000  Level Oakland Center
Sun 06:42:41 PM 36.6464 -120.9353 318° Northwest 418 481 30,000  Level Oakland Center
Sun 06:43:43 PM 36.7308 -121.0364 316° Northwest 419 482 30,000  Level Oakland Center
Sun 06:44:43 PM 36.8253 -121.1497 316° Northwest 417 480 30,000  Level Oakland Center
Sun 06:45:45 PM 36.9142 -121.2519 317° Northwest 413 475 30,000 -98 Level Oakland Center
Sun 06:46:46 PM 36.9994 -121.3508 317° Northwest 417 480 29,800 -634 Descending Oakland Center
Sun 06:47:48 PM 37.0869 -121.4553 316° Northwest 430 495 28,700 -1,366 Descending Oakland Center
Sun 06:48:49 PM 37.1742 -121.5603 316° Northwest 450 518 27,000 -1,721 Descending Oakland Center
Sun 06:49:50 PM 37.2667 -121.6714 316° Northwest 457 526 25,200 -1,854 Descending Oakland Center
Sun 06:50:52 PM 37.3597 -121.7825 317° Northwest 446 513 23,200 -1,980 Descending Oakland Center
Sun 06:51:30 PM 37.4333 -121.8667 318° Northwest 430 495 21,900 -1,898 Descending Northern Cal TRACON
Sun 06:52:30 PM 37.5167 -121.9667 316° Northwest 417 480 20,100 -1,800 Descending Northern Cal TRACON
Sun 06:53:30 PM 37.6000 -122.0667 316° Northwest 395 455 18,300 -1,850 Descending Northern Cal TRACON
Sun 06:54:30 PM 37.6667 -122.1500 315° West 350 403 16,400 -1,771 Descending Northern Cal TRACON
Sun 06:57:00 PM 37.8542 -122.3678 318° Northwest 368 423 12,100 -1,735 Descending Oakland Center
Sun 06:58:01 PM 37.9272 -122.4478 319° Northwest 360 414 10,300 -1,707 Descending Oakland Center
Sun 06:59:03 PM 38.0033 -122.4936 335° Northwest 317 365 8,600 -1,122 Descending Oakland Center
Sun 07:00:04 PM 38.0903 -122.5494 333° Northwest 299 344 8,000 -295 Descending Oakland Center
Sun 07:01:05 PM 38.1628 -122.5944 334° Northwest 293 337 8,000 -146 Level Oakland Center
Sun 07:02:07 PM 38.2347 -122.6425 332° Northwest 294 338 7,700 -780 Descending Oakland Center
Sun 07:03:08 PM 38.2994 -122.6975 326° Northwest 285 328 6,400 -885 Descending Oakland Center
Sun 07:04:09 PM 38.3592 -122.7486 326° Northwest 268 308 5,900 -1,131 Descending Oakland Center
Sun 07:05:10 PM 38.4194 -122.7972 328° Northwest 261 300 4,100 -1,317 Descending Oakland Center
Sun 07:06:12 PM 38.4717 -122.8322 332° Northwest 234 269 3,200 -1,171 Descending Oakland Center
Sun 07:07:13 PM 38.5181 -122.8550 339° North 198 228 1,700 -1,033 Descending Oakland Center
Sun 07:08:14 PM 38.5431 -122.8342 33° Northeast 161 185 1,100 -590 Descending Oakland Center

Login

Don't have an account? Register now (free) for customized features, flight alerts, and more!